sensor_id;sensor_type;location;lat;lon;timestamp;temperature;humidity
21799;DHT22;24973;47.178;15.316;2023-06-22T08:33:13;27.70;99.90
21799;DHT22;24973;47.178;15.316;2023-06-22T08:36:07;27.70;99.90
21799;DHT22;24973;47.178;15.316;2023-06-22T08:38:58;27.80;99.90
21799;DHT22;24973;47.178;15.316;2023-06-22T08:41:48;28.10;99.90
21799;DHT22;24973;47.178;15.316;2023-06-22T08:44:37;28.30;99.90
21799;DHT22;24973;47.178;15.316;2023-06-22T08:47:27;28.50;99.90
21799;DHT22;24973;47.178;15.316;2023-06-22T08:50:16;28.60;99.90
21799;DHT22;24973;47.178;15.316;2023-06-22T08:53:06;28.70;99.90
21799;DHT22;24973;47.178;15.316;2023-06-22T08:55:55;28.80;99.90
21799;DHT22;24973;47.178;15.316;2023-06-22T08:58:44;29.00;99.90
21799;DHT22;24973;47.178;15.316;2023-06-22T09:01:33;29.20;99.90
21799;DHT22;24973;47.178;15.316;2023-06-22T09:04:21;29.30;99.90
21799;DHT22;24973;47.178;15.316;2023-06-22T09:07:10;29.40;99.90
21799;DHT22;24973;47.178;15.316;2023-06-22T09:10:01;29.50;99.90
21799;DHT22;24973;47.178;15.316;2023-06-22T09:12:51;29.60;99.90
21799;DHT22;24973;47.178;15.316;2023-06-22T09:15:40;29.60;99.90
21799;DHT22;24973;47.178;15.316;2023-06-22T09:18:29;29.80;99.90
21799;DHT22;24973;47.178;15.316;2023-06-22T09:21:18;29.80;99.90
21799;DHT22;24973;47.178;15.316;2023-06-22T09:24:07;29.80;99.90
21799;DHT22;24973;47.178;15.316;2023-06-22T09:26:57;29.90;99.90
21799;DHT22;24973;47.178;15.316;2023-06-22T09:29:46;30.10;99.90
21799;DHT22;24973;47.178;15.316;2023-06-22T09:32:35;30.20;99.90
21799;DHT22;24973;47.178;15.316;2023-06-22T09:35:24;30.20;99.90
21799;DHT22;24973;47.178;15.316;2023-06-22T09:38:13;30.10;99.90
21799;DHT22;24973;47.178;15.316;2023-06-22T09:41:01;30.10;99.90
21799;DHT22;24973;47.178;15.316;2023-06-22T09:43:52;30.20;99.90
21799;DHT22;24973;47.178;15.316;2023-06-22T09:46:42;30.20;99.90
21799;DHT22;24973;47.178;15.316;2023-06-22T09:49:31;30.30;99.90
21799;DHT22;24973;47.178;15.316;2023-06-22T09:52:32;30.40;99.90
21799;DHT22;24973;47.178;15.316;2023-06-22T09:55:33;30.50;99.90
21799;DHT22;24973;47.178;15.316;2023-06-22T09:58:21;30.70;99.90
21799;DHT22;24973;47.178;15.316;2023-06-22T10:01:12;30.80;99.90
21799;DHT22;24973;47.178;15.316;2023-06-22T10:04:02;30.90;99.30
21799;DHT22;24973;47.178;15.316;2023-06-22T10:06:51;31.00;99.50
21799;DHT22;24973;47.178;15.316;2023-06-22T10:09:40;31.00;99.70
21799;DHT22;24973;47.178;15.316;2023-06-22T10:12:29;31.10;99.00
21799;DHT22;24973;47.178;15.316;2023-06-22T10:15:17;31.20;96.80
21799;DHT22;24973;47.178;15.316;2023-06-22T10:18:08;31.30;97.30
21799;DHT22;24973;47.178;15.316;2023-06-22T10:20:57;31.10;96.70
21799;DHT22;24973;47.178;15.316;2023-06-22T10:23:45;30.80;98.40
21799;DHT22;24973;47.178;15.316;2023-06-22T10:26:35;30.90;98.60
21799;DHT22;24973;47.178;15.316;2023-06-22T10:29:24;31.10;97.20
21799;DHT22;24973;47.178;15.316;2023-06-22T10:32:13;31.40;97.80
21799;DHT22;24973;47.178;15.316;2023-06-22T10:35:04;31.70;98.10
21799;DHT22;24973;47.178;15.316;2023-06-22T10:37:53;31.80;96.10
21799;DHT22;24973;47.178;15.316;2023-06-22T10:40:43;31.80;94.80
21799;DHT22;24973;47.178;15.316;2023-06-22T10:43:32;31.80;95.70
21799;DHT22;24973;47.178;15.316;2023-06-22T10:46:21;32.00;95.30
21799;DHT22;24973;47.178;15.316;2023-06-22T10:49:12;32.20;96.80
21799;DHT22;24973;47.178;15.316;2023-06-22T10:52:03;32.50;96.40
21799;DHT22;24973;47.178;15.316;2023-06-22T10:54:52;32.70;95.90
21799;DHT22;24973;47.178;15.316;2023-06-22T10:57:41;32.90;95.70
21799;DHT22;24973;47.178;15.316;2023-06-22T11:00:31;32.90;94.80
21799;DHT22;24973;47.178;15.316;2023-06-22T11:03:20;33.10;94.70
21799;DHT22;24973;47.178;15.316;2023-06-22T11:06:09;33.20;94.20
21799;DHT22;24973;47.178;15.316;2023-06-22T11:08:59;33.20;93.80
21799;DHT22;24973;47.178;15.316;2023-06-22T11:11:51;33.20;93.30
21799;DHT22;24973;47.178;15.316;2023-06-22T11:14:41;33.20;92.60
21799;DHT22;24973;47.178;15.316;2023-06-22T11:17:30;33.00;93.50
21799;DHT22;24973;47.178;15.316;2023-06-22T11:20:19;33.10;93.40
21799;DHT22;24973;47.178;15.316;2023-06-22T11:23:07;33.30;93.00
21799;DHT22;24973;47.178;15.316;2023-06-22T11:25:58;33.40;92.30
21799;DHT22;24973;47.178;15.316;2023-06-22T11:28:47;33.70;92.40
21799;DHT22;24973;47.178;15.316;2023-06-22T11:31:36;33.90;92.80
21799;DHT22;24973;47.178;15.316;2023-06-22T11:34:25;34.10;91.00
21799;DHT22;24973;47.178;15.316;2023-06-22T11:37:15;34.20;90.70
21799;DHT22;24973;47.178;15.316;2023-06-22T11:40:05;34.10;91.10
21799;DHT22;24973;47.178;15.316;2023-06-22T11:42:57;34.00;91.00
21799;DHT22;24973;47.178;15.316;2023-06-22T11:45:46;34.20;91.60
21799;DHT22;24973;47.178;15.316;2023-06-22T11:48:35;34.40;90.30
21799;DHT22;24973;47.178;15.316;2023-06-22T11:51:23;33.80;89.10
21799;DHT22;24973;47.178;15.316;2023-06-22T11:54:12;33.80;90.70
21799;DHT22;24973;47.178;15.316;2023-06-22T11:57:01;34.10;91.10
21799;DHT22;24973;47.178;15.316;2023-06-22T11:59:52;34.10;90.00
21799;DHT22;24973;47.178;15.316;2023-06-22T12:02:40;34.20;90.20
21799;DHT22;24973;47.178;15.316;2023-06-22T12:05:29;34.10;88.30
21799;DHT22;24973;47.178;15.316;2023-06-22T12:08:18;33.90;88.60
21799;DHT22;24973;47.178;15.316;2023-06-22T12:11:07;33.90;86.60
21799;DHT22;24973;47.178;15.316;2023-06-22T12:13:56;33.70;86.20
21799;DHT22;24973;47.178;15.316;2023-06-22T12:16:50;33.50;86.10
21799;DHT22;24973;47.178;15.316;2023-06-22T12:19:39;33.50;86.70
21799;DHT22;24973;47.178;15.316;2023-06-22T12:22:27;33.10;87.60
21799;DHT22;24973;47.178;15.316;2023-06-22T12:25:16;33.50;90.50
21799;DHT22;24973;47.178;15.316;2023-06-22T12:28:06;33.60;87.20
21799;DHT22;24973;47.178;15.316;2023-06-22T12:30:55;33.80;88.50
21799;DHT22;24973;47.178;15.316;2023-06-22T12:33:45;34.20;86.60
21799;DHT22;24973;47.178;15.316;2023-06-22T12:36:34;34.40;85.10
21799;DHT22;24973;47.178;15.316;2023-06-22T12:39:23;34.00;84.40
21799;DHT22;24973;47.178;15.316;2023-06-22T12:42:12;33.70;86.80
21799;DHT22;24973;47.178;15.316;2023-06-22T12:45:02;34.10;88.40
21799;DHT22;24973;47.178;15.316;2023-06-22T12:47:51;34.50;86.70
21799;DHT22;24973;47.178;15.316;2023-06-22T12:50:41;35.00;88.20
21799;DHT22;24973;47.178;15.316;2023-06-22T12:53:30;35.50;86.50
21799;DHT22;24973;47.178;15.316;2023-06-22T12:56:19;35.80;86.20
21799;DHT22;24973;47.178;15.316;2023-06-22T12:59:08;36.20;84.90
21799;DHT22;24973;47.178;15.316;2023-06-22T13:01:56;36.50;84.10
21799;DHT22;24973;47.178;15.316;2023-06-22T13:04:45;36.70;82.90
21799;DHT22;24973;47.178;15.316;2023-06-22T13:07:36;36.90;81.80
21799;DHT22;24973;47.178;15.316;2023-06-22T13:10:25;37.00;80.80
21799;DHT22;24973;47.178;15.316;2023-06-22T13:13:14;37.00;80.00
21799;DHT22;24973;47.178;15.316;2023-06-22T13:16:03;36.90;77.50
21799;DHT22;24973;47.178;15.316;2023-06-22T13:18:52;36.60;79.20
21799;DHT22;24973;47.178;15.316;2023-06-22T13:21:41;36.50;80.20
21799;DHT22;24973;47.178;15.316;2023-06-22T13:24:31;36.60;80.70
21799;DHT22;24973;47.178;15.316;2023-06-22T13:27:20;36.70;81.60
21799;DHT22;24973;47.178;15.316;2023-06-22T13:30:10;36.90;81.40
21799;DHT22;24973;47.178;15.316;2023-06-22T13:33:00;37.20;80.90
21799;DHT22;24973;47.178;15.316;2023-06-22T13:35:49;37.40;79.80
21799;DHT22;24973;47.178;15.316;2023-06-22T13:38:38;37.70;78.80
21799;DHT22;24973;47.178;15.316;2023-06-22T13:41:29;37.80;77.60
21799;DHT22;24973;47.178;15.316;2023-06-22T13:44:18;38.00;76.80
21799;DHT22;24973;47.178;15.316;2023-06-22T13:47:08;38.20;76.70
21799;DHT22;24973;47.178;15.316;2023-06-22T13:49:57;38.20;75.50
21799;DHT22;24973;47.178;15.316;2023-06-22T13:52:46;38.30;75.90
21799;DHT22;24973;47.178;15.316;2023-06-22T13:55:35;38.30;75.20
21799;DHT22;24973;47.178;15.316;2023-06-22T13:58:26;37.40;72.30
21799;DHT22;24973;47.178;15.316;2023-06-22T14:01:14;36.80;75.70
21799;DHT22;24973;47.178;15.316;2023-06-22T14:04:03;36.80;78.30
21799;DHT22;24973;47.178;15.316;2023-06-22T14:06:52;37.20;77.40
21799;DHT22;24973;47.178;15.316;2023-06-22T14:09:43;37.30;76.60
21799;DHT22;24973;47.178;15.316;2023-06-22T14:12:32;37.50;76.10
21799;DHT22;24973;47.178;15.316;2023-06-22T14:15:22;37.70;75.80
21799;DHT22;24973;47.178;15.316;2023-06-22T14:18:11;37.90;75.20
21799;DHT22;24973;47.178;15.316;2023-06-22T14:21:00;38.00;74.90
21799;DHT22;24973;47.178;15.316;2023-06-22T14:23:48;38.10;74.60
21799;DHT22;24973;47.178;15.316;2023-06-22T14:26:37;38.40;75.10
21799;DHT22;24973;47.178;15.316;2023-06-22T14:29:26;38.70;74.00
21799;DHT22;24973;47.178;15.316;2023-06-22T14:32:16;39.00;73.50
21799;DHT22;24973;47.178;15.316;2023-06-22T14:35:06;39.20;69.00
21799;DHT22;24973;47.178;15.316;2023-06-22T14:37:55;39.00;70.50
21799;DHT22;24973;47.178;15.316;2023-06-22T14:40:44;38.90;70.60
21799;DHT22;24973;47.178;15.316;2023-06-22T14:43:43;38.70;69.20
21799;DHT22;24973;47.178;15.316;2023-06-22T14:46:35;38.50;68.90
21799;DHT22;24973;47.178;15.316;2023-06-22T14:49:26;38.20;70.20
21799;DHT22;24973;47.178;15.316;2023-06-22T14:52:19;37.80;69.50
21799;DHT22;24973;47.178;15.316;2023-06-22T14:55:08;37.70;70.10
21799;DHT22;24973;47.178;15.316;2023-06-22T14:57:57;37.70;71.10
21799;DHT22;24973;47.178;15.316;2023-06-22T15:00:46;37.90;71.90
21799;DHT22;24973;47.178;15.316;2023-06-22T15:03:35;38.20;71.20
21799;DHT22;24973;47.178;15.316;2023-06-22T15:06:26;38.30;70.10
21799;DHT22;24973;47.178;15.316;2023-06-22T15:09:15;38.30;70.20
21799;DHT22;24973;47.178;15.316;2023-06-22T15:12:04;38.20;71.10
21799;DHT22;24973;47.178;15.316;2023-06-22T15:14:58;38.20;70.10
21799;DHT22;24973;47.178;15.316;2023-06-22T15:17:47;38.50;70.50
21799;DHT22;24973;47.178;15.316;2023-06-22T15:20:36;38.70;70.40
21799;DHT22;24973;47.178;15.316;2023-06-22T15:23:27;38.80;69.70
21799;DHT22;24973;47.178;15.316;2023-06-22T15:26:16;39.40;83.40
21799;DHT22;24973;47.178;15.316;2023-06-22T15:29:05;39.10;66.60
21799;DHT22;24973;47.178;15.316;2023-06-22T15:31:53;38.80;68.10
21799;DHT22;24973;47.178;15.316;2023-06-22T15:34:42;38.60;69.10
21799;DHT22;24973;47.178;15.316;2023-06-22T15:37:31;38.30;69.70
21799;DHT22;24973;47.178;15.316;2023-06-22T15:40:21;38.00;70.10
21799;DHT22;24973;47.178;15.316;2023-06-22T15:43:10;37.70;71.70
21799;DHT22;24973;47.178;15.316;2023-06-22T15:46:01;37.30;71.80
21799;DHT22;24973;47.178;15.316;2023-06-22T15:48:50;36.90;72.90
21799;DHT22;24973;47.178;15.316;2023-06-22T15:51:39;36.40;73.00
21799;DHT22;24973;47.178;15.316;2023-06-22T15:54:28;35.90;73.90
21799;DHT22;24973;47.178;15.316;2023-06-22T15:57:18;35.50;74.90
21799;DHT22;24973;47.178;15.316;2023-06-22T16:00:08;35.40;76.20
21799;DHT22;24973;47.178;15.316;2023-06-22T16:03:01;35.50;77.10
21799;DHT22;24973;47.178;15.316;2023-06-22T16:05:50;35.90;78.60
21799;DHT22;24973;47.178;15.316;2023-06-22T16:08:39;35.80;77.70
21799;DHT22;24973;47.178;15.316;2023-06-22T16:11:28;35.70;76.50
21799;DHT22;24973;47.178;15.316;2023-06-22T16:14:18;35.70;77.30
21799;DHT22;24973;47.178;15.316;2023-06-22T16:17:07;35.40;77.30
21799;DHT22;24973;47.178;15.316;2023-06-22T16:19:56;35.40;78.30
21799;DHT22;24973;47.178;15.316;2023-06-22T16:22:46;35.60;77.90
21799;DHT22;24973;47.178;15.316;2023-06-22T16:25:35;35.70;78.60
21799;DHT22;24973;47.178;15.316;2023-06-22T16:28:24;36.00;80.20
21799;DHT22;24973;47.178;15.316;2023-06-22T16:31:14;35.90;80.70
21799;DHT22;24973;47.178;15.316;2023-06-22T16:34:03;35.70;81.00
21799;DHT22;24973;47.178;15.316;2023-06-22T16:36:52;34.90;80.00
21799;DHT22;24973;47.178;15.316;2023-06-22T16:39:41;34.50;80.50
21799;DHT22;24973;47.178;15.316;2023-06-22T16:42:30;34.30;81.80
21799;DHT22;24973;47.178;15.316;2023-06-22T16:45:19;34.00;83.00
21799;DHT22;24973;47.178;15.316;2023-06-22T16:48:10;33.40;86.10
21799;DHT22;24973;47.178;15.316;2023-06-22T16:50:59;33.30;87.00
21799;DHT22;24973;47.178;15.316;2023-06-22T16:53:53;33.00;88.40
21799;DHT22;24973;47.178;15.316;2023-06-22T16:56:44;32.80;92.30
21799;DHT22;24973;47.178;15.316;2023-06-22T16:59:34;32.50;91.50
21799;DHT22;24973;47.178;15.316;2023-06-22T17:02:24;31.80;99.90
21799;DHT22;24973;47.178;15.316;2023-06-22T17:05:16;31.80;91.30
21799;DHT22;24973;47.178;15.316;2023-06-22T17:08:08;31.50;92.00
21799;DHT22;24973;47.178;15.316;2023-06-22T17:11:01;31.00;92.90
21799;DHT22;24973;47.178;15.316;2023-06-22T17:13:50;30.80;93.80
21799;DHT22;24973;47.178;15.316;2023-06-22T17:16:42;30.80;95.10
21799;DHT22;24973;47.178;15.316;2023-06-22T17:19:33;30.50;95.30
21799;DHT22;24973;47.178;15.316;2023-06-22T17:22:23;30.40;95.50
21799;DHT22;24973;47.178;15.316;2023-06-22T17:25:12;30.10;96.40
